Weather History for Auburn, IN

Change the Weather History Date:

Thursday, January 31, 2013

  Actual Average (KFWA) Record (KFWA)
Temperature  
Mean Temperature 22 °F 25 °F  
Max Temperature 30 °F 33 °F 61 °F (1989)
Min Temperature 14 °F 18 °F -18 °F (1963)
Degree Days  
Heating Degree Days 43 40  
Month to date heating degree days 1239  
Since 1 July heating degree days 3571  
Cooling Degree Days 0 0  
Month to date cooling degree days 0  
Year to date cooling degree days 0  
Moisture  
Dew Point 14 °F    
Average Humidity 72    
Maximum Humidity 86    
Minimum Humidity 59    
Precipitation  
Precipitation 0.00 in 0.07 in 1.12 in (1982)
Month to date precipitation 2.26  
Year to date precipitation 2.26  
Snow  
Snow 0.00 in 0.30 in 10.80 in (1982)
Month to date snowfall 10.1  
Since 1 July snowfall 20.7  
Snow Depth -    
Sea Level Pressure  
Sea Level Pressure 29.75 in    
Wind  
Wind Speed 18 mph (West)    
Max Wind Speed 28 mph    
Max Gust Speed 37 mph    
Visibility 7 miles    
Events Snow    
T = Trace of Precipitation, MM = Missing Value Source: NWS Daily Summary

Daily Weather History Graph

Daily Weather History Graph

Search for Another Location

Airport:

Trip Planner

Search our weather history database for the weather conditions in past years. The results will help you decide how hot, cold, wet, or windy it might be!

Date:

Astronomy

Jan. 31, 2013 Rise Set
Actual Time 7:52 AM EST 5:55 PM EST
Civil Twilight 7:22 AM EST 6:25 PM EST
Nautical Twilight 6:49 AM EST 6:58 PM EST
Astronomical Twilight 6:17 AM EST 7:30 PM EST
Moon 11:01 PM EST (1/31) 9:47 AM EST (1/31)
Length of Visible Light 11h 02m
Length of Day
10h 03m
Waning Gibbous, 80% of the Moon is Illuminated
Jan 31
Waning Gibbous
Feb 3
Last Quarter
Feb 10
New
Feb 17
First Quarter
Feb 25
Full

Hourly Weather History & Observations

Time (EST) Temp. Windchill Dew Point Humidity Pressure Visibility Wind Dir Wind Speed Gust Speed Precip Events Conditions
12:15 AM 30.2 °F 18.1 °F 26.6 °F 86% 29.44 in 10.0 mi West 18.4 mph 29.9 mph N/A Snow Light Snow
12:35 AM 30.2 °F 17.1 °F 24.8 °F 80% 29.45 in 10.0 mi West 21.9 mph 32.2 mph N/A   Overcast
12:55 AM 30.2 °F 17.4 °F 23.0 °F 75% 29.47 in 10.0 mi West 20.7 mph 32.2 mph N/A Snow Light Snow
1:15 AM 30.2 °F 17.4 °F 23.0 °F 75% 29.48 in 5.0 mi West 20.7 mph 27.6 mph N/A Snow Light Snow
1:35 AM 28.4 °F 13.5 °F 24.8 °F 86% 29.49 in 1.2 mi West 26.5 mph 34.5 mph N/A Snow Light Snow
1:55 AM 28.4 °F 14.1 °F 21.2 °F 74% 29.51 in 7.0 mi West 24.2 mph 32.2 mph N/A Snow Light Snow
2:15 AM 26.6 °F 10.8 °F 17.6 °F 69% 29.53 in 10.0 mi West 27.6 mph 36.8 mph N/A   Overcast
2:35 AM 26.6 °F 13.8 °F 19.4 °F 74% 29.54 in 10.0 mi West 17.3 mph 31.1 mph N/A Snow Light Snow
2:55 AM 26.6 °F 12.7 °F 21.2 °F 80% 29.55 in 3.0 mi West 20.7 mph 27.6 mph N/A Snow Light Snow
3:15 AM 26.6 °F 14.3 °F 19.4 °F 74% 29.57 in 5.0 mi West 16.1 mph 25.3 mph N/A Snow Light Snow
3:35 AM 26.6 °F 13.1 °F 19.4 °F 74% 29.57 in 7.0 mi West 19.6 mph 28.8 mph N/A Snow Light Snow
3:55 AM 24.8 °F 13.4 °F 19.4 °F 80% 29.58 in 3.0 mi WSW 12.7 mph 24.2 mph N/A Snow Light Snow
4:15 AM 24.8 °F 11.9 °F 19.4 °F 80% 29.59 in 7.0 mi West 16.1 mph 27.6 mph N/A Snow Light Snow
4:35 AM 23.0 °F 8.0 °F 19.4 °F 86% 29.60 in 1.0 mi West 20.7 mph 25.3 mph N/A Snow Light Snow
4:55 AM 23.0 °F 8.3 °F 17.6 °F 80% 29.61 in 5.0 mi West 19.6 mph 26.5 mph N/A Snow Light Snow
5:15 AM 23.0 °F 9.6 °F 15.8 °F 74% 29.62 in 7.0 mi WSW 16.1 mph 25.3 mph N/A Snow Light Snow
5:35 AM 23.0 °F 8.7 °F 15.8 °F 74% 29.63 in 10.0 mi WSW 18.4 mph 23.0 mph N/A   Overcast
5:55 AM 23.0 °F 10.1 °F 15.8 °F 74% 29.63 in 10.0 mi WSW 15.0 mph 26.5 mph N/A   Overcast
6:15 AM 23.0 °F 8.0 °F 15.8 °F 74% 29.64 in 5.0 mi WSW 20.7 mph 29.9 mph N/A Snow Light Snow
6:35 AM 23.0 °F 10.1 °F 14.0 °F 68% 29.65 in 10.0 mi WSW 15.0 mph 25.3 mph N/A   Overcast
6:55 AM 21.2 °F 7.8 °F 14.0 °F 74% 29.65 in 10.0 mi WSW 15.0 mph 29.9 mph N/A Snow Light Snow
7:15 AM 21.2 °F 6.4 °F 14.0 °F 74% 29.67 in 5.0 mi West 18.4 mph 29.9 mph N/A Snow Light Snow
7:55 AM 21.2 °F 9.5 °F 14.0 °F 74% 29.69 in 7.0 mi West 11.5 mph 24.2 mph N/A Snow Light Snow
8:15 AM 21.2 °F 6.8 °F 12.2 °F 68% 29.70 in 7.0 mi West 17.3 mph 27.6 mph N/A Snow Light Snow
8:35 AM 21.2 °F 5.6 °F 12.2 °F 68% 29.71 in 10.0 mi West 20.7 mph 25.3 mph N/A   Overcast
8:55 AM 21.2 °F 7.8 °F 10.4 °F 63% 29.72 in 10.0 mi WSW 15.0 mph 23.0 mph N/A   Overcast
9:15 AM 21.2 °F 6.0 °F 10.4 °F 63% 29.74 in 10.0 mi West 19.6 mph 26.5 mph N/A   Overcast
9:35 AM 21.2 °F 9.5 °F 14.0 °F 74% 29.75 in 1.5 mi West 11.5 mph 18.4 mph N/A Snow Light Snow
9:55 AM 19.4 °F 3.6 °F 14.0 °F 80% 29.76 in 1.2 mi WSW 19.6 mph 25.3 mph N/A Snow Light Snow
10:15 AM 21.2 °F 8.9 °F 14.0 °F 74% 29.77 in 3.0 mi West 12.7 mph 19.6 mph N/A Snow Light Snow
10:35 AM 21.2 °F 7.3 °F 12.2 °F 68% 29.77 in 5.0 mi WSW 16.1 mph 23.0 mph N/A Snow Light Snow
10:55 AM 21.2 °F 6.8 °F 12.2 °F 68% 29.78 in 10.0 mi West 17.3 mph 26.5 mph N/A   Overcast
11:15 AM 21.2 °F 9.5 °F 12.2 °F 68% 29.79 in 7.0 mi WSW 11.5 mph 27.6 mph N/A   Overcast
11:35 AM 21.2 °F 9.5 °F 14.0 °F 74% 29.79 in 3.0 mi WSW 11.5 mph 21.9 mph N/A Snow Light Snow
11:55 AM 23.0 °F 11.1 °F 14.0 °F 68% 29.79 in 5.0 mi WSW 12.7 mph 25.3 mph N/A   Haze
12:15 PM 24.8 °F 12.4 °F 15.8 °F 69% 29.79 in 5.0 mi West 15.0 mph 24.2 mph N/A Snow Light Snow
12:35 PM 24.8 °F 12.4 °F 15.8 °F 69% 29.78 in 10.0 mi West 15.0 mph 25.3 mph N/A   Mostly Cloudy
12:55 PM 26.6 °F 14.7 °F 14.0 °F 59% 29.78 in 10.0 mi WSW 15.0 mph 23.0 mph N/A   Overcast
1:15 PM 23.0 °F 10.1 °F 15.8 °F 74% 29.78 in 4.0 mi West 15.0 mph 25.3 mph N/A Snow Light Snow
1:35 PM 23.0 °F 10.1 °F 15.8 °F 74% 29.78 in 3.0 mi West 15.0 mph 24.2 mph N/A Snow Light Snow
1:55 PM 26.6 °F 14.3 °F 17.6 °F 69% 29.79 in 5.0 mi West 16.1 mph 24.2 mph N/A Snow Light Snow
2:15 PM 23.0 °F 10.6 °F 17.6 °F 80% 29.80 in 0.5 mi West 13.8 mph 19.6 mph N/A Snow Snow
2:35 PM 23.0 °F 9.2 °F 17.6 °F 80% 29.80 in 0.5 mi West 17.3 mph 24.2 mph N/A Snow Light Snow
2:55 PM 23.0 °F 8.3 °F 14.0 °F 68% 29.80 in 7.0 mi West 19.6 mph 29.9 mph N/A Snow Light Snow
3:15 PM 23.0 °F 9.6 °F 14.0 °F 68% 29.81 in 7.0 mi West 16.1 mph 26.5 mph N/A Snow Light Snow
3:35 PM 21.2 °F 6.4 °F 12.2 °F 68% 29.81 in 10.0 mi West 18.4 mph 23.0 mph N/A Snow Light Snow
3:55 PM 21.2 °F 7.3 °F 12.2 °F 68% 29.82 in 10.0 mi West 16.1 mph 25.3 mph N/A   Overcast
4:15 PM 21.2 °F 6.4 °F 10.4 °F 63% 29.83 in 10.0 mi West 18.4 mph 27.6 mph N/A   Overcast
4:35 PM 21.2 °F 6.0 °F 10.4 °F 63% 29.83 in 10.0 mi West 19.6 mph 28.8 mph N/A   Mostly Cloudy
4:55 PM 19.4 °F 5.0 °F 10.4 °F 68% 29.83 in 10.0 mi West 16.1 mph - N/A   Mostly Cloudy
5:15 PM 19.4 °F 4.5 °F 10.4 °F 68% 29.84 in 10.0 mi West 17.3 mph 23.0 mph N/A   Overcast
5:35 PM 19.4 °F 4.5 °F 12.2 °F 74% 29.85 in 1.8 mi West 17.3 mph 27.6 mph N/A Snow Light Snow
5:55 PM 19.4 °F 6.6 °F 10.4 °F 68% 29.85 in 7.0 mi West 12.7 mph 18.4 mph N/A   Overcast
6:15 PM 17.6 °F 2.2 °F 8.6 °F 68% 29.86 in 10.0 mi West 17.3 mph 23.0 mph N/A   Overcast
6:35 PM 17.6 °F 4.3 °F 8.6 °F 68% 29.87 in 10.0 mi West 12.7 mph 24.2 mph N/A   Overcast
6:55 PM 17.6 °F 2.7 °F 8.6 °F 68% 29.89 in 10.0 mi West 16.1 mph 21.9 mph N/A   Overcast
7:15 PM 17.6 °F 3.2 °F 6.8 °F 63% 29.90 in 10.0 mi West 15.0 mph 23.0 mph N/A   Overcast
7:35 PM 17.6 °F 3.7 °F 8.6 °F 68% 29.91 in 10.0 mi West 13.8 mph 23.0 mph N/A   Overcast
7:55 PM 17.6 °F 5.0 °F 8.6 °F 68% 29.92 in 10.0 mi West 11.5 mph - N/A   Overcast
8:15 PM 17.6 °F 4.3 °F 8.6 °F 68% 29.92 in 10.0 mi West 12.7 mph 18.4 mph N/A   Overcast
8:35 PM 17.6 °F 5.0 °F 8.6 °F 68% 29.92 in 7.0 mi West 11.5 mph 20.7 mph N/A Snow Light Snow
8:55 PM 17.6 °F 3.7 °F 10.4 °F 73% 29.93 in 7.0 mi West 13.8 mph 21.9 mph N/A Snow Light Snow
9:15 PM 15.8 °F 3.4 °F 10.4 °F 79% 29.93 in 4.0 mi West 10.4 mph 17.3 mph N/A Snow Light Snow
9:35 PM 15.8 °F 2.7 °F 10.4 °F 79% 29.94 in 5.0 mi West 11.5 mph 18.4 mph N/A Snow Light Snow
9:55 PM 15.8 °F 1.4 °F 8.6 °F 73% 29.94 in 7.0 mi West 13.8 mph 23.0 mph N/A Snow Light Snow
10:15 PM 14.0 °F -0.2 °F 6.8 °F 73% 29.95 in 10.0 mi West 12.7 mph 25.3 mph N/A   Mostly Cloudy
10:35 PM 14.0 °F -3.0 °F 6.8 °F 73% 29.95 in 10.0 mi West 18.4 mph 23.0 mph N/A   Mostly Cloudy
10:55 PM 14.0 °F -1.4 °F 6.8 °F 73% 29.95 in 10.0 mi West 15.0 mph 24.2 mph N/A   Overcast
11:15 PM 14.0 °F -2.0 °F 6.8 °F 73% 29.96 in 7.0 mi West 16.1 mph 24.2 mph N/A Snow Light Snow
11:35 PM 14.0 °F -2.5 °F 6.8 °F 73% 29.97 in 7.0 mi West 17.3 mph 23.0 mph N/A Snow Light Snow
11:55 PM 14.0 °F -0.8 °F 5.0 °F 67% 29.97 in 7.0 mi West 13.8 mph 26.5 mph N/A   Overcast